Time;durP1;ratioP1;P1;durP2;ratioP2;P2;SDS_P1;SDS_P2;PMS_P1;PMS_P2;Temp;Humidity;BMP_temperature;BMP_pressure;BME280_temperature;BME280_humidity;BME280_pressure;Samples;Min_cycle;Max_cycle;Signal;HPM_P1;HPM_P2
2023/09/17 00:01:33;;;;;;;;;;;24.60;99.90;;;;;;5053619;28;19908;-73
2023/09/17 00:04:00;;;;;;;;;;;24.60;99.90;;;;;;5071741;28;20309;-73
2023/09/17 00:06:26;;;;;;;;;;;24.60;99.90;;;;;;5071457;28;20025;-72
2023/09/17 00:08:52;;;;;;;;;;;24.60;99.90;;;;;;5071573;28;19909;-73
2023/09/17 00:11:18;;;;;;;;;;;24.60;99.90;;;;;;5075773;28;19960;-73
2023/09/17 00:13:44;;;;;;;;;;;24.60;99.90;;;;;;5057511;28;19915;-72
2023/09/17 00:16:10;;;;;;;;;;;24.50;99.90;;;;;;5076044;28;20003;-72
2023/09/17 00:18:36;;;;;;;;;;;24.50;99.90;;;;;;5075493;28;19970;-73
2023/09/17 00:21:03;;;;;;;;;;;24.50;99.90;;;;;;5075934;28;20260;-73
2023/09/17 00:23:29;;;;;;;;;;;24.50;99.90;;;;;;5057238;28;19909;-73
2023/09/17 00:25:55;;;;;;;;;;;24.60;99.90;;;;;;5075697;28;20050;-72
2023/09/17 00:28:20;;;;;;;;;;;24.60;99.90;;;;;;5075494;28;19951;-73
2023/09/17 00:30:46;;;;;;;;;;;24.60;99.90;;;;;;5057693;28;19909;-72
2023/09/17 00:33:12;;;;;;;;;;;24.60;99.90;;;;;;5075579;28;20348;-73
2023/09/17 00:35:38;;;;;;;;;;;24.50;99.90;;;;;;5074885;28;19917;-72
2023/09/17 00:38:05;;;;;;;;;;;24.50;99.90;;;;;;5056931;28;19967;-73
2023/09/17 00:40:34;;;;;;;;;;;24.50;99.90;;;;;;5057027;28;19916;-73
2023/09/17 00:43:01;;;;;;;;;;;24.50;99.90;;;;;;5057025;28;20288;-73
2023/09/17 00:45:29;;;;;;;;;;;24.50;99.90;;;;;;5057341;28;19915;-73
2023/09/17 00:47:55;;;;;;;;;;;24.50;99.90;;;;;;5057117;28;19951;-72
2023/09/17 00:50:21;;;;;;;;;;;24.50;99.90;;;;;;5074824;28;19984;-72
2023/09/17 00:52:47;;;;;;;;;;;24.50;99.90;;;;;;5074730;28;20414;-72
2023/09/17 00:55:13;;;;;;;;;;;24.50;99.90;;;;;;5074783;28;19991;-72
2023/09/17 00:57:41;;;;;;;;;;;24.50;99.90;;;;;;5074688;28;19916;-73
2023/09/17 01:00:09;;;;;;;;;;;24.50;99.90;;;;;;5056570;28;19908;-73
2023/09/17 01:02:36;;;;;;;;;;;24.40;99.90;;;;;;5074772;28;19913;-72
2023/09/17 01:05:04;;;;;;;;;;;24.50;99.90;;;;;;5074454;28;20272;-73
2023/09/17 01:07:29;;;;;;;;;;;24.40;99.90;;;;;;5074381;28;19916;-72
2023/09/17 01:09:55;;;;;;;;;;;24.50;99.90;;;;;;5074890;28;19962;-73
2023/09/17 01:12:21;;;;;;;;;;;24.50;99.90;;;;;;5074468;28;20321;-72
2023/09/17 01:14:47;;;;;;;;;;;24.50;99.90;;;;;;5074968;28;19909;-73
2023/09/17 01:17:13;;;;;;;;;;;24.60;99.90;;;;;;5056171;28;19917;-72
2023/09/17 01:19:42;;;;;;;;;;;24.60;99.90;;;;;;5056321;28;20343;-72
2023/09/17 01:22:08;;;;;;;;;;;24.60;99.90;;;;;;5073251;28;19912;-73
2023/09/17 01:24:58;;;;;;;;;;;24.60;99.90;;;;;;5074148;28;20011;-72
2023/09/17 01:27:25;;;;;;;;;;;24.50;99.90;;;;;;5056145;28;19987;-72
2023/09/17 01:29:52;;;;;;;;;;;24.40;99.90;;;;;;5056006;28;19978;-73
2023/09/17 01:32:19;;;;;;;;;;;24.40;99.90;;;;;;5074088;28;19931;-72
2023/09/17 01:34:49;;;;;;;;;;;24.40;99.90;;;;;;5074402;28;20313;-73
2023/09/17 01:37:18;;;;;;;;;;;24.40;99.90;;;;;;5074154;28;20000;-73
2023/09/17 01:39:47;;;;;;;;;;;24.30;99.90;;;;;;5074428;28;19909;-72
2023/09/17 01:42:15;;;;;;;;;;;24.20;99.90;;;;;;5073805;28;19909;-73
2023/09/17 01:44:42;;;;;;;;;;;24.10;99.90;;;;;;5073873;28;19909;-73
2023/09/17 01:47:08;;;;;;;;;;;24.00;99.90;;;;;;5074076;28;19908;-72
2023/09/17 01:49:34;;;;;;;;;;;24.00;99.90;;;;;;5073667;28;19984;-73
2023/09/17 01:52:00;;;;;;;;;;;24.00;99.90;;;;;;5055656;28;19974;-72
2023/09/17 01:54:26;;;;;;;;;;;23.90;99.90;;;;;;5074155;28;19951;-72
2023/09/17 01:56:52;;;;;;;;;;;23.80;99.90;;;;;;5055415;28;19970;-72
2023/09/17 01:59:17;;;;;;;;;;;23.80;99.90;;;;;;5055584;28;19931;-72
2023/09/17 02:01:44;;;;;;;;;;;23.80;99.90;;;;;;5073540;28;19915;-72
2023/09/17 02:04:10;;;;;;;;;;;23.80;99.90;;;;;;5073775;28;19936;-73
2023/09/17 02:06:36;;;;;;;;;;;23.80;99.90;;;;;;5073685;28;20206;-73
2023/09/17 02:09:05;;;;;;;;;;;23.80;99.90;;;;;;5054985;28;19916;-72
2023/09/17 02:11:43;;;;;;;;;;;23.80;99.90;;;;;;5073820;28;19908;-72
2023/09/17 02:14:09;;;;;;;;;;;23.70;99.90;;;;;;5073982;28;19951;-72
2023/09/17 02:16:37;;;;;;;;;;;23.70;99.90;;;;;;5073359;28;19960;-72
2023/09/17 02:19:03;;;;;;;;;;;23.70;99.90;;;;;;5073980;28;19912;-72
2023/09/17 02:21:29;;;;;;;;;;;23.70;99.90;;;;;;5055565;28;20012;-72
2023/09/17 02:23:55;;;;;;;;;;;23.80;99.90;;;;;;5073159;28;20003;-73
2023/09/17 02:26:21;;;;;;;;;;;23.90;99.90;;;;;;5073281;28;19908;-72
2023/09/17 02:28:47;;;;;;;;;;;23.90;99.90;;;;;;5055156;28;19953;-72
2023/09/17 02:31:13;;;;;;;;;;;24.00;99.90;;;;;;5073704;28;20007;-73
2023/09/17 02:33:40;;;;;;;;;;;24.00;99.90;;;;;;5073168;28;20372;-72
2023/09/17 02:36:06;;;;;;;;;;;24.10;99.90;;;;;;5073141;28;20005;-73
2023/09/17 02:38:32;;;;;;;;;;;24.10;99.90;;;;;;5072973;28;19962;-73
2023/09/17 02:40:57;;;;;;;;;;;24.10;99.90;;;;;;5073403;28;19913;-73
2023/09/17 02:43:23;;;;;;;;;;;24.00;99.90;;;;;;5072927;28;19954;-74
2023/09/17 02:45:49;;;;;;;;;;;24.10;99.90;;;;;;5073370;28;19908;-73
2023/09/17 02:48:15;;;;;;;;;;;24.10;99.90;;;;;;5054734;28;19909;-72
2023/09/17 02:50:41;;;;;;;;;;;24.10;99.90;;;;;;5073110;28;20384;-73
2023/09/17 02:53:07;;;;;;;;;;;24.10;99.90;;;;;;5072639;28;20368;-73
2023/09/17 02:55:36;;;;;;;;;;;24.20;99.90;;;;;;5073051;28;19974;-72
2023/09/17 02:58:02;;;;;;;;;;;24.20;99.90;;;;;;5072619;28;19917;-73
2023/09/17 03:00:34;;;;;;;;;;;24.20;99.90;;;;;;5072755;28;20433;-72
2023/09/17 03:03:00;;;;;;;;;;;24.20;99.90;;;;;;5054620;28;19913;-72
2023/09/17 03:05:26;;;;;;;;;;;24.10;99.90;;;;;;5072814;28;20452;-73
2023/09/17 03:07:53;;;;;;;;;;;24.10;99.90;;;;;;5054522;28;19931;-72
2023/09/17 03:10:20;;;;;;;;;;;24.10;99.90;;;;;;5072492;28;19909;-73
2023/09/17 03:12:46;;;;;;;;;;;24.00;99.90;;;;;;5072533;28;19908;-72
2023/09/17 03:15:15;;;;;;;;;;;24.00;99.90;;;;;;5072312;28;20341;-72
2023/09/17 03:17:44;;;;;;;;;;;24.00;99.90;;;;;;5072283;28;19924;-72
2023/09/17 03:20:14;;;;;;;;;;;24.00;99.90;;;;;;5072772;28;19915;-73
2023/09/17 03:22:40;;;;;;;;;;;24.00;99.90;;;;;;5072188;28;19954;-72
2023/09/17 03:25:06;;;;;;;;;;;24.00;99.90;;;;;;5054330;28;19958;-72
2023/09/17 03:27:35;;;;;;;;;;;24.10;99.90;;;;;;5072608;28;19909;-73
2023/09/17 03:30:03;;;;;;;;;;;24.00;99.90;;;;;;5054096;28;19958;-72
2023/09/17 03:32:29;;;;;;;;;;;24.00;99.90;;;;;;5072709;28;19959;-72
2023/09/17 03:34:56;;;;;;;;;;;24.00;99.90;;;;;;5072181;28;20016;-73
2023/09/17 03:37:22;;;;;;;;;;;24.00;99.90;;;;;;5050370;28;20011;-74
2023/09/17 03:40:07;;;;;;;;;;;24.00;99.90;;;;;;5052519;28;20001;-74
2023/09/17 03:42:34;;;;;;;;;;;24.00;99.90;;;;;;5052244;28;20456;-73
2023/09/17 03:45:00;;;;;;;;;;;23.90;99.90;;;;;;5051916;28;19952;-73
2023/09/17 03:47:26;;;;;;;;;;;24.00;99.90;;;;;;5052133;28;19947;-72
2023/09/17 03:49:52;;;;;;;;;;;24.00;99.90;;;;;;5052001;28;19916;-72
2023/09/17 03:52:18;;;;;;;;;;;23.90;99.90;;;;;;5051748;28;19940;-72
2023/09/17 03:54:43;;;;;;;;;;;23.80;99.90;;;;;;5052035;28;19913;-74
2023/09/17 03:57:09;;;;;;;;;;;23.90;99.90;;;;;;5051866;28;19959;-73
2023/09/17 03:59:35;;;;;;;;;;;24.00;99.90;;;;;;5052139;28;19909;-73
2023/09/17 04:02:01;;;;;;;;;;;24.00;99.90;;;;;;5051807;28;19909;-73
2023/09/17 04:04:27;;;;;;;;;;;24.00;99.90;;;;;;5051921;28;20042;-72
2023/09/17 04:06:52;;;;;;;;;;;24.00;99.90;;;;;;5052029;28;19962;-73
2023/09/17 04:09:18;;;;;;;;;;;23.90;99.90;;;;;;5051869;28;19975;-72
2023/09/17 04:11:44;;;;;;;;;;;23.80;99.90;;;;;;5052195;28;19962;-73
2023/09/17 04:14:10;;;;;;;;;;;23.80;99.90;;;;;;5051972;28;20368;-73
2023/09/17 04:16:36;;;;;;;;;;;23.80;99.90;;;;;;5052145;28;20007;-73
2023/09/17 04:19:02;;;;;;;;;;;23.80;99.90;;;;;;5051770;28;19944;-72
2023/09/17 04:21:28;;;;;;;;;;;23.80;99.90;;;;;;5050501;28;20394;-73
2023/09/17 04:23:54;;;;;;;;;;;23.80;99.90;;;;;;5051682;28;19931;-72
2023/09/17 04:26:21;;;;;;;;;;;23.80;99.90;;;;;;5050353;28;20028;-72
2023/09/17 04:28:47;;;;;;;;;;;23.80;99.90;;;;;;5051653;28;19909;-72
2023/09/17 04:31:13;;;;;;;;;;;23.80;99.90;;;;;;5051809;28;19908;-73
2023/09/17 04:33:41;;;;;;;;;;;23.80;99.90;;;;;;5050124;28;19909;-72
2023/09/17 04:36:07;;;;;;;;;;;23.80;99.90;;;;;;5050239;28;19982;-73
2023/09/17 04:38:34;;;;;;;;;;;23.80;99.90;;;;;;5051501;28;19917;-73
2023/09/17 04:41:00;;;;;;;;;;;23.90;99.90;;;;;;5051986;28;20371;-72
2023/09/17 04:43:26;;;;;;;;;;;23.90;99.90;;;;;;5051774;28;20395;-72
2023/09/17 04:45:52;;;;;;;;;;;24.00;99.90;;;;;;5051904;28;19948;-72
2023/09/17 04:48:18;;;;;;;;;;;24.00;99.90;;;;;;5050154;28;19916;-73
2023/09/17 04:50:44;;;;;;;;;;;24.00;99.90;;;;;;5051910;28;19944;-72
2023/09/17 04:53:10;;;;;;;;;;;23.90;99.90;;;;;;5051163;28;19913;-73
2023/09/17 04:55:36;;;;;;;;;;;23.80;99.90;;;;;;5051375;28;20387;-71
2023/09/17 04:58:02;;;;;;;;;;;23.80;99.90;;;;;;5054677;28;19924;-72
2023/09/17 05:00:28;;;;;;;;;;;23.80;99.90;;;;;;5055078;28;19909;-72
2023/09/17 05:02:54;;;;;;;;;;;23.90;99.90;;;;;;5055508;28;19955;-72
2023/09/17 05:05:20;;;;;;;;;;;23.90;99.90;;;;;;5054935;28;20265;-72
2023/09/17 05:07:48;;;;;;;;;;;24.00;99.90;;;;;;5054655;28;20353;-72
2023/09/17 05:10:15;;;;;;;;;;;24.00;99.90;;;;;;5054753;28;19916;-73
2023/09/17 05:12:41;;;;;;;;;;;24.10;99.90;;;;;;5054435;28;19913;-72
2023/09/17 05:15:07;;;;;;;;;;;24.20;99.90;;;;;;5054738;28;19916;-72
2023/09/17 05:17:33;;;;;;;;;;;24.30;99.90;;;;;;5054602;28;19924;-72
2023/09/17 05:19:59;;;;;;;;;;;24.40;99.90;;;;;;5053140;28;19915;-71
2023/09/17 05:22:25;;;;;;;;;;;24.50;99.90;;;;;;5054674;28;20273;-72
2023/09/17 05:24:51;;;;;;;;;;;24.60;99.90;;;;;;5054436;28;19921;-72
2023/09/17 05:27:16;;;;;;;;;;;24.70;99.90;;;;;;5053047;28;19909;-72
2023/09/17 05:29:43;;;;;;;;;;;24.80;99.90;;;;;;5054408;28;19988;-73
2023/09/17 05:32:09;;;;;;;;;;;25.00;99.90;;;;;;5052910;28;19951;-71
2023/09/17 05:34:35;;;;;;;;;;;25.10;99.90;;;;;;5054577;28;19948;-72
2023/09/17 05:37:01;;;;;;;;;;;25.20;99.90;;;;;;5068796;28;20349;-72
2023/09/17 05:39:26;;;;;;;;;;;25.30;99.90;;;;;;5073844;28;19908;-72
2023/09/17 05:41:54;;;;;;;;;;;25.60;99.90;;;;;;5074062;28;19908;-72
2023/09/17 05:44:20;;;;;;;;;;;26.40;99.90;;;;;;5073551;28;19919;-72
2023/09/17 05:46:46;;;;;;;;;;;27.10;99.90;;;;;;5055334;28;20276;-71
2023/09/17 05:49:12;;;;;;;;;;;28.00;99.90;;;;;;5055392;28;20288;-72
2023/09/17 05:51:39;;;;;;;;;;;28.90;99.90;;;;;;5055443;28;19975;-72
2023/09/17 05:54:05;;;;;;;;;;;29.50;99.90;;;;;;5073223;28;19949;-72
2023/09/17 05:56:31;;;;;;;;;;;29.90;99.90;;;;;;5055014;28;19977;-72
2023/09/17 05:58:56;;;;;;;;;;;30.40;99.90;;;;;;5054547;28;19981;-73
2023/09/17 06:01:22;;;;;;;;;;;30.30;99.90;;;;;;5073197;28;19909;-72
2023/09/17 06:03:48;;;;;;;;;;;30.30;99.90;;;;;;5072503;28;19916;-72
2023/09/17 06:06:14;;;;;;;;;;;31.10;99.90;;;;;;5072569;28;20329;-73
2023/09/17 06:08:40;;;;;;;;;;;32.00;99.90;;;;;;5071983;28;19915;-73
2023/09/17 06:11:06;;;;;;;;;;;32.60;99.90;;;;;;5072388;28;19913;-73
2023/09/17 06:13:31;;;;;;;;;;;33.30;99.90;;;;;;5072576;28;19908;-73
2023/09/17 06:15:57;;;;;;;;;;;33.40;99.90;;;;;;5072563;28;19909;-73
2023/09/17 06:18:23;;;;;;;;;;;32.90;99.90;;;;;;5073186;28;19917;-73
2023/09/17 06:20:49;;;;;;;;;;;33.20;99.90;;;;;;5073678;28;20060;-73
2023/09/17 06:23:15;;;;;;;;;;;33.80;99.90;;;;;;5073299;28;19913;-73
2023/09/17 06:25:41;;;;;;;;;;;34.40;99.90;;;;;;5073595;28;19913;-73
2023/09/17 06:28:07;;;;;;;;;;;34.30;99.90;;;;;;5073573;28;19939;-73
2023/09/17 06:30:33;;;;;;;;;;;34.40;99.90;;;;;;5073396;28;19916;-73
2023/09/17 06:32:59;;;;;;;;;;;34.10;99.90;;;;;;5055649;28;19913;-73
2023/09/17 06:35:25;;;;;;;;;;;33.90;99.90;;;;;;5073416;28;19947;-73
2023/09/17 06:37:50;;;;;;;;;;;33.80;99.90;;;;;;5073153;28;19931;-73
2023/09/17 06:40:17;;;;;;;;;;;34.30;99.90;;;;;;5073579;28;20003;-72
2023/09/17 06:42:43;;;;;;;;;;;34.90;99.90;;;;;;5073067;28;20004;-72
2023/09/17 06:45:09;;;;;;;;;;;36.20;99.90;;;;;;5054962;28;19908;-74
2023/09/17 06:47:35;;;;;;;;;;;37.30;99.90;;;;;;5072969;28;19919;-73
2023/09/17 06:50:01;;;;;;;;;;;37.40;99.90;;;;;;5072991;28;20006;-73
2023/09/17 06:52:27;;;;;;;;;;;38.20;99.80;;;;;;5072992;28;19909;-73
2023/09/17 06:54:53;;;;;;;;;;;37.20;99.30;;;;;;5072749;28;19989;-73
2023/09/17 06:57:18;;;;;;;;;;;37.60;99.10;;;;;;5072743;28;19917;-73
2023/09/17 06:59:46;;;;;;;;;;;38.20;98.90;;;;;;5073009;28;20010;-73
2023/09/17 07:02:12;;;;;;;;;;;38.70;97.80;;;;;;5072815;28;19909;-73
2023/09/17 07:04:38;;;;;;;;;;;39.10;97.40;;;;;;5072891;28;20001;-73
2023/09/17 07:07:03;;;;;;;;;;;38.90;96.70;;;;;;5072718;28;20357;-73
2023/09/17 07:09:30;;;;;;;;;;;38.60;97.10;;;;;;5072381;28;19989;-73
2023/09/17 07:11:56;;;;;;;;;;;39.30;96.40;;;;;;5073114;28;19908;-73
2023/09/17 07:14:22;;;;;;;;;;;39.00;96.10;;;;;;5072794;28;19920;-73
2023/09/17 07:16:48;;;;;;;;;;;38.70;95.80;;;;;;5072789;28;19915;-73
2023/09/17 07:19:15;;;;;;;;;;;39.30;95.40;;;;;;5071928;28;19931;-74
2023/09/17 07:21:41;;;;;;;;;;;38.60;95.40;;;;;;5054412;28;20236;-73
2023/09/17 07:24:07;;;;;;;;;;;38.30;95.40;;;;;;5072254;28;19919;-73
2023/09/17 07:26:32;;;;;;;;;;;37.90;96.00;;;;;;5072507;28;19915;-73
2023/09/17 07:28:58;;;;;;;;;;;37.40;96.30;;;;;;5072366;28;19932;-73
2023/09/17 07:31:24;;;;;;;;;;;35.90;97.10;;;;;;5072257;28;19995;-73
2023/09/17 07:33:50;;;;;;;;;;;35.50;97.90;;;;;;5072481;28;19962;-73
2023/09/17 07:36:16;;;;;;;;;;;34.60;98.40;;;;;;5072118;28;20011;-73
2023/09/17 07:38:41;;;;;;;;;;;34.50;98.80;;;;;;5071862;28;19921;-73
2023/09/17 07:41:09;;;;;;;;;;;34.70;98.80;;;;;;5071510;28;21461;-73
2023/09/17 07:43:35;;;;;;;;;;;34.30;99.30;;;;;;5072110;28;19919;-73
2023/09/17 07:46:01;;;;;;;;;;;33.40;99.90;;;;;;5071743;28;19986;-73
2023/09/17 07:48:29;;;;;;;;;;;33.90;99.80;;;;;;5071638;28;19962;-74
2023/09/17 07:50:58;;;;;;;;;;;33.70;99.90;;;;;;5072016;28;20410;-74
2023/09/17 07:53:25;;;;;;;;;;;33.50;99.90;;;;;;5053050;28;19962;-73
2023/09/17 07:55:51;;;;;;;;;;;33.70;99.90;;;;;;5072240;28;20099;-73
2023/09/17 07:58:17;;;;;;;;;;;33.50;99.90;;;;;;5071759;28;19917;-73
2023/09/17 08:00:45;;;;;;;;;;;33.20;99.90;;;;;;5071878;28;19908;-73
2023/09/17 08:03:18;;;;;;;;;;;33.40;99.90;;;;;;5071792;28;19942;-73
2023/09/17 08:05:45;;;;;;;;;;;33.00;99.90;;;;;;5053590;28;19909;-73
2023/09/17 08:08:11;;;;;;;;;;;33.40;99.90;;;;;;5071387;28;20470;-75
2023/09/17 08:10:37;;;;;;;;;;;33.80;99.90;;;;;;5071732;28;19930;-73
2023/09/17 08:13:03;;;;;;;;;;;34.10;99.90;;;;;;5071350;28;20400;-73
2023/09/17 08:15:29;;;;;;;;;;;33.90;99.90;;;;;;5053342;28;19955;-72
2023/09/17 08:17:56;;;;;;;;;;;33.50;99.90;;;;;;5072113;28;20284;-73
2023/09/17 08:20:22;;;;;;;;;;;33.40;99.90;;;;;;5072609;28;19985;-74
2023/09/17 08:22:51;;;;;;;;;;;33.60;99.90;;;;;;5053936;28;19920;-73
2023/09/17 08:25:18;;;;;;;;;;;32.90;99.90;;;;;;5072011;28;19914;-73
2023/09/17 08:27:44;;;;;;;;;;;33.00;99.90;;;;;;5072527;28;20349;-73
2023/09/17 08:30:13;;;;;;;;;;;33.20;99.90;;;;;;5072793;28;19915;-73
2023/09/17 08:32:40;;;;;;;;;;;33.00;99.90;;;;;;5076253;28;20245;-73
2023/09/17 08:35:07;;;;;;;;;;;33.50;99.90;;;;;;5075883;28;19912;-74
2023/09/17 08:37:37;;;;;;;;;;;33.80;99.90;;;;;;5075472;28;20333;-73
2023/09/17 08:40:09;;;;;;;;;;;33.90;99.90;;;;;;5075568;28;19940;-73
2023/09/17 08:42:38;;;;;;;;;;;34.00;99.90;;;;;;5075664;28;19988;-73
2023/09/17 08:45:05;;;;;;;;;;;33.60;99.90;;;;;;5075677;28;19923;-72
2023/09/17 08:47:31;;;;;;;;;;;33.50;99.90;;;;;;5075345;28;20237;-73
2023/09/17 08:49:57;;;;;;;;;;;33.40;99.90;;;;;;5075187;28;19909;-74
2023/09/17 08:52:24;;;;;;;;;;;33.00;99.90;;;;;;5074790;28;19908;-73
2023/09/17 08:54:50;;;;;;;;;;;33.20;99.90;;;;;;5074857;28;19947;-73
2023/09/17 08:57:19;;;;;;;;;;;33.10;99.90;;;;;;5075339;28;19924;-73
2023/09/17 08:59:48;;;;;;;;;;;32.70;99.90;;;;;;5074887;28;19908;-73
2023/09/17 09:02:24;;;;;;;;;;;32.70;99.90;;;;;;5075257;28;19919;-73
2023/09/17 09:04:51;;;;;;;;;;;32.80;99.90;;;;;;5075045;28;19995;-73
2023/09/17 09:07:21;;;;;;;;;;;32.60;99.90;;;;;;5074851;28;20363;-73
2023/09/17 09:09:47;;;;;;;;;;;32.20;99.90;;;;;;5056298;28;19924;-73
2023/09/17 09:12:14;;;;;;;;;;;32.40;99.90;;;;;;5056396;28;19916;-73
2023/09/17 09:14:40;;;;;;;;;;;32.70;99.90;;;;;;5056407;28;19908;-73
2023/09/17 09:17:06;;;;;;;;;;;32.70;99.90;;;;;;5056429;28;20433;-73
2023/09/17 09:19:32;;;;;;;;;;;32.60;99.90;;;;;;5074719;28;19908;-73
2023/09/17 09:21:58;;;;;;;;;;;32.20;99.90;;;;;;5074524;28;19970;-72
2023/09/17 09:24:24;;;;;;;;;;;32.10;99.90;;;;;;5056256;28;19935;-73
2023/09/17 09:26:50;;;;;;;;;;;32.20;99.90;;;;;;5074875;28;20051;-73
2023/09/17 09:29:16;;;;;;;;;;;32.10;99.90;;;;;;5074414;28;20408;-73
2023/09/17 09:31:50;;;;;;;;;;;32.20;99.90;;;;;;5074319;28;19912;-74
2023/09/17 09:34:17;;;;;;;;;;;32.50;99.90;;;;;;5056187;28;20364;-73
2023/09/17 09:36:44;;;;;;;;;;;32.30;99.90;;;;;;5056019;28;20363;-73
2023/09/17 09:39:14;;;;;;;;;;;32.40;99.90;;;;;;5055873;28;20014;-74
2023/09/17 09:41:40;;;;;;;;;;;32.40;99.90;;;;;;5073683;28;20015;-73
2023/09/17 09:44:07;;;;;;;;;;;32.00;99.90;;;;;;5074058;28;20275;-74
2023/09/17 09:46:33;;;;;;;;;;;32.20;99.90;;;;;;5073851;28;19995;-73
2023/09/17 09:49:02;;;;;;;;;;;32.30;99.90;;;;;;5074244;28;20020;-73
2023/09/17 09:51:31;;;;;;;;;;;32.00;99.90;;;;;;5073767;28;19912;-72
2023/09/17 09:53:57;;;;;;;;;;;32.00;99.90;;;;;;5073995;28;20371;-73
2023/09/17 09:56:29;;;;;;;;;;;31.80;99.90;;;;;;5074175;28;19940;-74
2023/09/17 09:58:55;;;;;;;;;;;31.90;99.90;;;;;;5074542;28;19916;-76
2023/09/17 10:01:21;;;;;;;;;;;31.80;99.90;;;;;;5074088;28;19912;-74
2023/09/17 10:03:50;;;;;;;;;;;31.90;99.90;;;;;;5073939;28;19932;-72
2023/09/17 10:06:16;;;;;;;;;;;31.40;99.90;;;;;;5073617;28;20280;-73
2023/09/17 10:08:42;;;;;;;;;;;31.60;99.90;;;;;;5073763;28;19908;-74
2023/09/17 10:11:08;;;;;;;;;;;31.70;99.90;;;;;;5073844;28;19909;-73
2023/09/17 10:13:34;;;;;;;;;;;31.60;99.90;;;;;;5073770;28;19915;-73
2023/09/17 10:16:03;;;;;;;;;;;31.50;99.90;;;;;;5073807;28;19912;-73
2023/09/17 10:18:30;;;;;;;;;;;31.40;99.90;;;;;;5073213;28;20353;-73
2023/09/17 10:20:56;;;;;;;;;;;31.50;99.90;;;;;;5073350;28;19978;-72
2023/09/17 10:23:23;;;;;;;;;;;31.50;99.90;;;;;;5072862;28;19952;-73
2023/09/17 10:25:50;;;;;;;;;;;31.20;99.90;;;;;;5073138;28;19955;-73
2023/09/17 10:28:17;;;;;;;;;;;31.20;99.90;;;;;;5073567;28;19908;-73
2023/09/17 10:30:45;;;;;;;;;;;31.40;99.90;;;;;;5073058;28;19909;-73
2023/09/17 10:33:11;;;;;;;;;;;31.30;99.90;;;;;;5072957;28;19954;-72
2023/09/17 10:35:38;;;;;;;;;;;31.10;99.90;;;;;;5072655;28;20375;-73
2023/09/17 10:38:07;;;;;;;;;;;31.20;99.90;;;;;;5072536;28;19943;-73
2023/09/17 10:40:33;;;;;;;;;;;30.90;99.90;;;;;;5054652;28;19908;-73
2023/09/17 10:43:01;;;;;;;;;;;30.70;99.90;;;;;;5072685;28;19909;-72
2023/09/17 10:45:30;;;;;;;;;;;30.90;99.90;;;;;;5072554;28;19908;-72
2023/09/17 10:47:58;;;;;;;;;;;31.30;99.90;;;;;;5072911;28;19962;-72
2023/09/17 10:50:27;;;;;;;;;;;31.60;99.90;;;;;;5072621;28;19908;-71
2023/09/17 10:52:53;;;;;;;;;;;31.60;99.90;;;;;;5072337;28;19909;-74
2023/09/17 10:55:21;;;;;;;;;;;31.30;99.90;;;;;;5071643;28;19920;-72
2023/09/17 10:57:50;;;;;;;;;;;31.30;99.90;;;;;;5072413;28;19942;-72
2023/09/17 11:00:18;;;;;;;;;;;31.20;99.90;;;;;;5072932;28;19912;-73
2023/09/17 11:02:55;;;;;;;;;;;31.30;99.90;;;;;;5072351;28;19954;-72
2023/09/17 11:05:22;;;;;;;;;;;31.50;99.90;;;;;;5072462;28;19913;-72
2023/09/17 11:07:49;;;;;;;;;;;31.50;99.90;;;;;;5072942;28;20376;-72
2023/09/17 11:10:15;;;;;;;;;;;31.60;99.90;;;;;;5054047;28;20321;-73
2023/09/17 11:12:41;;;;;;;;;;;31.80;99.90;;;;;;5072763;28;19912;-73
2023/09/17 11:15:07;;;;;;;;;;;31.60;99.90;;;;;;5072311;28;19944;-73
2023/09/17 11:17:34;;;;;;;;;;;31.60;99.90;;;;;;5072240;28;19931;-73
2023/09/17 11:20:01;;;;;;;;;;;31.60;99.90;;;;;;5072624;28;20407;-73
2023/09/17 11:22:30;;;;;;;;;;;31.80;99.90;;;;;;5072140;28;20378;-73
2023/09/17 11:24:55;;;;;;;;;;;31.90;99.90;;;;;;5071991;28;19989;-73
2023/09/17 11:27:41;;;;;;;;;;;31.70;99.90;;;;;;5053945;28;19962;-73
2023/09/17 11:30:14;;;;;;;;;;;31.80;99.90;;;;;;5071847;28;19909;-73
2023/09/17 11:32:40;;;;;;;;;;;32.00;99.90;;;;;;5072214;28;20319;-73
2023/09/17 11:35:07;;;;;;;;;;;31.80;99.90;;;;;;5071977;28;19923;-73
2023/09/17 11:37:33;;;;;;;;;;;31.70;99.90;;;;;;5071802;28;19920;-73
2023/09/17 11:39:59;;;;;;;;;;;31.60;99.90;;;;;;5072000;28;19955;-72
2023/09/17 11:42:26;;;;;;;;;;;31.50;99.90;;;;;;5072323;28;20324;-72
2023/09/17 11:44:55;;;;;;;;;;;31.60;99.90;;;;;;5071930;28;20006;-73
2023/09/17 11:47:20;;;;;;;;;;;31.70;99.90;;;;;;5071829;28;19908;-72
2023/09/17 11:49:46;;;;;;;;;;;32.00;99.90;;;;;;5072133;28;19909;-74
2023/09/17 11:52:12;;;;;;;;;;;32.10;99.90;;;;;;5071961;28;19913;-73
2023/09/17 11:55:12;;;;;;;;;;;32.00;99.90;;;;;;5071785;28;20377;-74
2023/09/17 11:57:37;;;;;;;;;;;32.00;99.90;;;;;;5071912;28;19932;-74
2023/09/17 12:00:09;;;;;;;;;;;32.10;99.90;;;;;;5072033;28;19909;-73
2023/09/17 12:02:36;;;;;;;;;;;31.90;99.90;;;;;;5053641;28;20256;-73
2023/09/17 12:05:04;;;;;;;;;;;31.70;99.90;;;;;;5072560;28;19993;-73
2023/09/17 12:07:30;;;;;;;;;;;31.80;99.90;;;;;;5075935;28;19995;-74
2023/09/17 12:10:05;;;;;;;;;;;31.70;99.90;;;;;;5057497;28;20380;-73
2023/09/17 12:12:35;;;;;;;;;;;31.80;99.90;;;;;;5076047;28;19908;-72
2023/09/17 12:15:05;;;;;;;;;;;31.80;99.90;;;;;;5075796;28;19915;-73
2023/09/17 12:17:33;;;;;;;;;;;31.80;99.90;;;;;;5075638;28;20320;-73
2023/09/17 12:23:14;;;;;;;;;;;31.30;99.90;;;;;;5059022;28;19908;-75
2023/09/17 12:25:43;;;;;;;;;;;31.40;99.90;;;;;;5057339;28;19912;-72
2023/09/17 12:28:09;;;;;;;;;;;31.60;99.90;;;;;;5075540;28;20379;-73
2023/09/17 12:30:35;;;;;;;;;;;31.40;99.90;;;;;;5057319;28;19909;-76
2023/09/17 12:33:01;;;;;;;;;;;31.60;99.90;;;;;;5057503;28;19909;-76
2023/09/17 12:35:27;;;;;;;;;;;31.60;99.90;;;;;;5057214;28;19972;-76
2023/09/17 12:37:54;;;;;;;;;;;31.90;99.90;;;;;;5075591;28;19969;-74
2023/09/17 12:40:21;;;;;;;;;;;31.80;99.90;;;;;;5074991;28;19908;-73
2023/09/17 12:42:47;;;;;;;;;;;31.80;99.90;;;;;;5075103;28;19909;-73
2023/09/17 12:45:15;;;;;;;;;;;32.00;99.90;;;;;;5075173;28;19932;-75
2023/09/17 12:47:41;;;;;;;;;;;31.90;99.90;;;;;;5057002;28;20353;-73
2023/09/17 12:50:07;;;;;;;;;;;32.00;99.90;;;;;;5074881;28;19934;-74
2023/09/17 12:52:33;;;;;;;;;;;32.10;99.90;;;;;;5075260;28;19999;-74
2023/09/17 12:55:00;;;;;;;;;;;32.10;99.90;;;;;;5074811;28;19928;-74
2023/09/17 12:57:27;;;;;;;;;;;32.10;99.90;;;;;;5075024;28;19969;-73
2023/09/17 12:59:54;;;;;;;;;;;32.00;99.90;;;;;;5075026;28;19954;-73
2023/09/17 13:02:27;;;;;;;;;;;31.80;99.90;;;;;;5074808;28;19962;-74
2023/09/17 13:04:53;;;;;;;;;;;31.60;99.90;;;;;;5075154;28;20390;-74
2023/09/17 13:07:19;;;;;;;;;;;31.80;99.90;;;;;;5074643;28;19968;-74
2023/09/17 13:09:46;;;;;;;;;;;31.50;99.90;;;;;;5056354;28;20080;-73
2023/09/17 13:12:17;;;;;;;;;;;31.50;99.90;;;;;;5074579;28;19916;-74
2023/09/17 13:14:43;;;;;;;;;;;31.60;99.90;;;;;;5074696;28;19909;-75
2023/09/17 13:17:09;;;;;;;;;;;31.60;99.90;;;;;;5073443;28;19999;-73
2023/09/17 13:19:35;;;;;;;;;;;31.40;99.90;;;;;;5074490;28;19944;-74
2023/09/17 13:22:01;;;;;;;;;;;31.40;99.90;;;;;;5074531;28;19908;-74
2023/09/17 13:24:28;;;;;;;;;;;31.20;99.90;;;;;;5074648;28;19915;-74
2023/09/17 13:26:58;;;;;;;;;;;31.00;99.90;;;;;;5056398;28;19915;-74
2023/09/17 13:29:31;;;;;;;;;;;31.00;99.90;;;;;;5056058;28;19908;-74
2023/09/17 13:31:57;;;;;;;;;;;31.00;99.90;;;;;;5074551;28;20340;-74
2023/09/17 13:34:22;;;;;;;;;;;30.90;99.90;;;;;;5056081;28;19908;-74
2023/09/17 13:36:48;;;;;;;;;;;31.10;99.90;;;;;;5073917;28;19920;-74
2023/09/17 13:39:14;;;;;;;;;;;31.10;99.90;;;;;;5073749;28;19916;-72
2023/09/17 13:41:40;;;;;;;;;;;31.10;99.90;;;;;;5073879;28;20323;-73
2023/09/17 13:44:06;;;;;;;;;;;31.30;99.90;;;;;;5073881;28;20382;-73
2023/09/17 13:46:32;;;;;;;;;;;31.40;99.90;;;;;;5073625;28;19920;-72
2023/09/17 13:48:57;;;;;;;;;;;31.40;99.90;;;;;;5073402;28;20284;-73
2023/09/17 13:51:23;;;;;;;;;;;31.30;99.90;;;;;;5073602;28;19909;-72
2023/09/17 13:53:49;;;;;;;;;;;31.10;99.90;;;;;;5072477;28;19908;-72
2023/09/17 13:56:15;;;;;;;;;;;31.00;99.90;;;;;;5073021;28;19930;-72
2023/09/17 13:58:41;;;;;;;;;;;31.20;99.90;;;;;;5073248;28;19923;-72
2023/09/17 14:01:07;;;;;;;;;;;31.30;99.90;;;;;;5054978;28;19912;-72
2023/09/17 14:03:33;;;;;;;;;;;30.70;99.90;;;;;;5073228;28;19913;-72
2023/09/17 14:05:59;;;;;;;;;;;30.70;99.90;;;;;;5073145;28;19909;-72
2023/09/17 14:08:24;;;;;;;;;;;31.00;99.90;;;;;;5073609;28;20003;-73
2023/09/17 14:10:50;;;;;;;;;;;31.00;99.90;;;;;;5072918;28;19915;-72
2023/09/17 14:13:16;;;;;;;;;;;31.10;99.90;;;;;;5073495;28;20026;-72
2023/09/17 14:15:42;;;;;;;;;;;31.00;99.90;;;;;;5055112;28;20028;-72
2023/09/17 14:18:08;;;;;;;;;;;31.10;99.90;;;;;;5073445;28;20023;-72